Time;durP1;ratioP1;P1;durP2;ratioP2;P2;SDS_P1;SDS_P2;PMS_P1;PMS_P2;Temp;Humidity;BMP_temperature;BMP_pressure;BME280_temperature;BME280_humidity;BME280_pressure;Samples;Min_cycle;Max_cycle;Signal;HPM_P1;HPM_P2
2023/04/05 00:02:02;;;;;;;;;89.25;82.75;;;;;;;;5034493;29;8794;-65
2023/04/05 00:04:33;;;;;;;;;88.20;75.80;;;;;;;;5033977;29;8916;-66
2023/04/05 00:07:07;;;;;;;;;86.20;74.80;;;;;;;;5065855;29;8936;-66
2023/04/05 00:09:37;;;;;;;;;85.60;73.20;;;;;;;;5049248;29;8841;-66
2023/04/05 00:12:09;;;;;;;;;79.75;65.25;;;;;;;;5049270;29;8811;-66
2023/04/05 00:14:40;;;;;;;;;82.60;70.20;;;;;;;;5048779;29;8829;-66
2023/04/05 00:17:12;;;;;;;;;86.50;75.75;;;;;;;;5048890;29;8868;-66
2023/04/05 00:19:43;;;;;;;;;88.80;81.80;;;;;;;;5049344;29;11540;-66
2023/04/05 00:22:19;;;;;;;;;86.40;76.40;;;;;;;;5049212;29;8794;-66
2023/04/05 00:25:08;;;;;;;;;82.20;70.20;;;;;;;;5049096;29;8786;-67
2023/04/05 00:27:42;;;;;;;;;83.40;71.20;;;;;;;;5066459;29;8820;-68
2023/04/05 00:30:19;;;;;;;;;85.80;71.40;;;;;;;;5048768;29;8845;-67
2023/04/05 00:32:50;;;;;;;;;79.60;66.20;;;;;;;;5065347;29;9569;-67
2023/04/05 00:35:21;;;;;;;;;87.00;78.25;;;;;;;;5065506;29;8816;-67
2023/04/05 00:37:52;;;;;;;;;86.00;76.75;;;;;;;;5033193;29;8786;-67
2023/04/05 00:40:41;;;;;;;;;90.60;81.40;;;;;;;;5065487;29;8805;-67
2023/04/05 00:43:12;;;;;;;;;101.00;90.00;;;;;;;;5048649;29;8888;-67
2023/04/05 00:45:43;;;;;;;;;100.50;90.25;;;;;;;;5064911;29;10455;-67
2023/04/05 00:48:14;;;;;;;;;82.75;65.50;;;;;;;;5032546;29;8833;-67
2023/04/05 00:50:47;;;;;;;;;51.60;44.80;;;;;;;;5033106;29;11517;-67
2023/04/05 00:53:19;;;;;;;;;71.60;58.60;;;;;;;;5048949;29;8797;-67
2023/04/05 00:55:53;;;;;;;;;80.40;65.80;;;;;;;;5032450;29;9040;-67
2023/04/05 00:58:24;;;;;;;;;81.00;64.80;;;;;;;;5033589;29;8790;-67
2023/04/05 01:01:13;;;;;;;;;78.60;62.00;;;;;;;;5049244;29;8801;-68
2023/04/05 01:03:48;;;;;;;;;81.60;63.00;;;;;;;;5045317;29;8796;-68
2023/04/05 01:06:31;;;;;;;;;82.60;68.00;;;;;;;;5045955;29;8837;-68
2023/04/05 01:09:28;;;;;;;;;71.60;57.00;;;;;;;;5035783;29;9565;-68
2023/04/05 01:12:01;;;;;;;;;83.40;68.80;;;;;;;;5048926;29;8951;-67
2023/04/05 01:14:43;;;;;;;;;88.40;74.40;;;;;;;;5048236;29;8816;-68
2023/04/05 01:17:15;;;;;;;;;93.60;84.80;;;;;;;;5033550;29;8826;-68
2023/04/05 01:19:46;;;;;;;;;70.40;54.60;;;;;;;;5032752;29;8786;-68
2023/04/05 01:22:36;;;;;;;;;52.80;44.80;;;;;;;;5048794;29;8800;-68
2023/04/05 01:25:27;;;;;;;;;50.60;42.40;;;;;;;;5033332;29;8794;-68
2023/04/05 01:27:58;;;;;;;;;50.40;44.00;;;;;;;;5032627;29;9777;-68
2023/04/05 01:30:31;;;;;;;;;71.25;57.25;;;;;;;;5017433;29;9228;-68
2023/04/05 01:33:15;;;;;;;;;93.80;83.40;;;;;;;;5032831;29;8993;-68
2023/04/05 01:36:15;;;;;;;;;89.00;68.80;;;;;;;;5032699;29;8794;-67
2023/04/05 01:39:07;;;;;;;;;58.40;50.20;;;;;;;;5043444;29;8789;-67
2023/04/05 01:41:39;;;;;;;;;54.80;45.20;;;;;;;;5032850;29;8912;-66
2023/04/05 01:44:11;;;;;;;;;49.00;41.20;;;;;;;;5047198;29;8869;-67
2023/04/05 01:46:42;;;;;;;;;35.00;34.50;;;;;;;;5064717;29;8957;-68
2023/04/05 01:49:12;;;;;;;;;41.50;37.00;;;;;;;;5033711;29;10697;-67
2023/04/05 01:51:45;;;;;;;;;31.00;29.80;;;;;;;;5048340;29;9212;-67
2023/04/05 01:54:34;;;;;;;;;42.00;37.60;;;;;;;;5050979;29;8790;-68
2023/04/05 01:57:05;;;;;;;;;47.60;40.40;;;;;;;;5047975;29;8834;-67
2023/04/05 01:59:36;;;;;;;;;45.60;39.40;;;;;;;;5033050;29;8802;-68
2023/04/05 02:02:07;;;;;;;;;49.20;42.00;;;;;;;;5048082;29;8821;-68
2023/04/05 02:04:38;;;;;;;;;51.25;43.25;;;;;;;;5028699;29;8827;-67
2023/04/05 02:07:09;;;;;;;;;46.60;41.20;;;;;;;;5014089;29;8919;-68
2023/04/05 02:09:40;;;;;;;;;56.00;44.25;;;;;;;;5030710;29;8828;-68
2023/04/05 02:12:11;;;;;;;;;47.50;41.00;;;;;;;;5047482;29;11469;-67
2023/04/05 02:14:42;;;;;;;;;57.75;47.00;;;;;;;;5049684;29;11576;-68
2023/04/05 02:17:13;;;;;;;;;50.00;43.75;;;;;;;;5051179;29;11535;-68
2023/04/05 02:19:45;;;;;;;;;67.50;53.75;;;;;;;;5051410;29;8814;-68
2023/04/05 02:22:16;;;;;;;;;76.80;62.20;;;;;;;;5051566;29;10795;-68
2023/04/05 02:24:47;;;;;;;;;80.50;66.00;;;;;;;;5051100;29;9490;-68
2023/04/05 02:27:18;;;;;;;;;78.20;61.20;;;;;;;;5066126;29;10199;-67
2023/04/05 02:29:54;;;;;;;;;84.80;64.60;;;;;;;;5050623;29;8821;-66
2023/04/05 02:32:25;;;;;;;;;84.60;67.40;;;;;;;;5057851;29;8821;-69
2023/04/05 02:34:57;;;;;;;;;78.60;60.80;;;;;;;;5068499;29;8886;-68
2023/04/05 02:37:28;;;;;;;;;79.60;61.40;;;;;;;;5066664;29;8847;-68
2023/04/05 02:40:18;;;;;;;;;78.20;61.00;;;;;;;;5064749;29;8924;-70
2023/04/05 02:42:49;;;;;;;;;77.00;64.20;;;;;;;;5039939;29;8986;-71
2023/04/05 02:45:39;;;;;;;;;82.40;67.80;;;;;;;;5049237;29;8816;-70
2023/04/05 02:48:29;;;;;;;;;84.20;67.40;;;;;;;;5032390;29;8902;-69
2023/04/05 02:51:01;;;;;;;;;83.20;72.20;;;;;;;;5063625;29;8834;-69
2023/04/05 02:53:32;;;;;;;;;75.00;61.20;;;;;;;;5066105;29;8806;-69
2023/04/05 02:56:06;;;;;;;;;80.20;65.60;;;;;;;;5050881;29;8826;-68
2023/04/05 02:58:42;;;;;;;;;82.40;66.40;;;;;;;;5050126;29;9639;-69
2023/04/05 03:01:16;;;;;;;;;71.40;54.80;;;;;;;;5034676;29;8813;-70
2023/04/05 03:04:05;;;;;;;;;69.40;56.00;;;;;;;;5037732;29;8782;-69
2023/04/05 03:06:37;;;;;;;;;65.40;53.60;;;;;;;;5050721;29;8868;-68
2023/04/05 03:09:10;;;;;;;;;70.40;55.40;;;;;;;;5049862;29;8912;-67
2023/04/05 03:11:42;;;;;;;;;69.60;54.80;;;;;;;;5050567;29;8778;-67
2023/04/05 03:14:13;;;;;;;;;78.00;64.60;;;;;;;;5066609;29;8868;-68
2023/04/05 03:17:03;;;;;;;;;77.40;62.80;;;;;;;;5060855;29;8984;-68
2023/04/05 03:19:44;;;;;;;;;84.00;68.80;;;;;;;;5043447;29;8818;-68
2023/04/05 03:22:22;;;;;;;;;72.00;58.00;;;;;;;;5034791;29;8821;-68
2023/04/05 03:24:55;;;;;;;;;83.40;69.20;;;;;;;;5051063;29;8810;-67
2023/04/05 03:27:27;;;;;;;;;89.20;81.20;;;;;;;;5034291;29;8826;-67
2023/04/05 03:30:17;;;;;;;;;86.40;77.40;;;;;;;;5049202;29;8855;-67
2023/04/05 03:32:56;;;;;;;;;91.80;81.60;;;;;;;;5049070;29;9557;-68
2023/04/05 03:35:46;;;;;;;;;85.40;74.80;;;;;;;;5049387;29;8810;-68
2023/04/05 03:38:17;;;;;;;;;84.40;77.20;;;;;;;;5065915;29;8821;-68
2023/04/05 03:41:02;;;;;;;;;78.00;65.80;;;;;;;;5049163;29;8824;-68
2023/04/05 03:43:52;;;;;;;;;58.20;49.00;;;;;;;;5065634;29;8833;-68
2023/04/05 03:46:26;;;;;;;;;52.80;44.60;;;;;;;;5049945;29;8818;-68
2023/04/05 03:48:58;;;;;;;;;50.40;41.80;;;;;;;;5049799;29;8798;-68
2023/04/05 03:51:47;;;;;;;;;54.40;46.20;;;;;;;;5049852;29;9593;-68
2023/04/05 03:54:18;;;;;;;;;48.75;41.50;;;;;;;;5034498;29;8797;-68
2023/04/05 03:56:50;;;;;;;;;55.60;47.40;;;;;;;;5066563;29;9239;-67
2023/04/05 03:59:23;;;;;;;;;51.40;42.40;;;;;;;;5065401;29;8824;-67
2023/04/05 04:01:54;;;;;;;;;55.00;45.40;;;;;;;;5048073;29;8952;-68
2023/04/05 04:04:28;;;;;;;;;67.80;52.60;;;;;;;;5033459;29;9517;-68
2023/04/05 04:07:00;;;;;;;;;29.40;29.40;;;;;;;;5033978;29;8822;-68
2023/04/05 04:09:33;;;;;;;;;41.20;37.60;;;;;;;;5048991;29;8825;-67
2023/04/05 04:12:11;;;;;;;;;62.20;50.00;;;;;;;;5066014;29;8953;-68
2023/04/05 04:14:52;;;;;;;;;73.60;58.60;;;;;;;;5048898;29;8801;-77
2023/04/05 04:17:56;;;;;;;;;103.00;95.50;;;;;;;;5017383;29;8810;-77
2023/04/05 04:20:37;;;;;;;;;80.20;67.60;;;;;;;;5035075;29;8814;-77
2023/04/05 04:23:37;;;;;;;;;113.00;101.00;;;;;;;;5053341;29;8782;-77
2023/04/05 04:26:41;;;;;;;;;120.50;105.75;;;;;;;;5028165;29;9054;-77
2023/04/05 04:29:37;;;;;;;;;114.00;90.67;;;;;;;;5019988;29;8821;-76
2023/04/05 04:32:46;;;;;;;;;123.75;112.00;;;;;;;;5035842;29;8956;-76
2023/04/05 04:35:37;;;;;;;;;128.67;116.67;;;;;;;;5034369;29;8918;-76
2023/04/05 04:38:19;;;;;;;;;132.25;115.50;;;;;;;;5049273;29;9025;-76
2023/04/05 04:41:16;;;;;;;;;115.00;105.50;;;;;;;;5015299;29;8816;-77
2023/04/05 04:44:07;;;;;;;;;105.50;90.75;;;;;;;;5032316;29;8828;-77
2023/04/05 04:47:02;;;;;;;;;90.80;79.60;;;;;;;;5017094;29;8942;-77
2023/04/05 04:49:56;;;;;;;;;88.00;78.20;;;;;;;;5031683;29;8832;-77
2023/04/05 04:52:28;;;;;;;;;76.20;62.00;;;;;;;;5029507;29;8910;-77
2023/04/05 04:55:01;;;;;;;;;80.60;67.60;;;;;;;;5044714;29;8822;-77
2023/04/05 04:57:34;;;;;;;;;83.40;70.80;;;;;;;;5033384;29;8794;-77
2023/04/05 05:00:25;;;;;;;;;104.25;94.75;;;;;;;;5035783;29;8933;-77
2023/04/05 05:02:58;;;;;;;;;95.75;90.75;;;;;;;;5032236;29;8810;-77
2023/04/05 05:05:29;;;;;;;;;107.25;90.25;;;;;;;;5049664;29;8809;-77
2023/04/05 05:08:01;;;;;;;;;94.20;87.00;;;;;;;;5036244;29;8782;-77
2023/04/05 05:10:33;;;;;;;;;95.00;84.25;;;;;;;;5033002;29;9549;-77
2023/04/05 05:13:11;;;;;;;;;95.50;88.00;;;;;;;;5032694;29;8818;-77
2023/04/05 05:15:42;;;;;;;;;109.50;98.25;;;;;;;;5033387;29;8944;-67
2023/04/05 05:18:13;;;;;;;;;104.00;95.75;;;;;;;;5048363;29;8945;-76
2023/04/05 05:20:58;;;;;;;;;86.40;82.80;;;;;;;;5065326;29;8836;-77
2023/04/05 05:23:30;;;;;;;;;92.50;87.50;;;;;;;;5048544;29;8798;-78
2023/04/05 05:26:02;;;;;;;;;91.80;82.80;;;;;;;;5017590;29;8880;-78
2023/04/05 05:28:35;;;;;;;;;85.20;80.40;;;;;;;;5009997;29;8904;-79
2023/04/05 05:31:07;;;;;;;;;92.50;87.00;;;;;;;;5027443;29;8862;-78
2023/04/05 05:33:41;;;;;;;;;91.60;86.80;;;;;;;;5027789;29;8816;-78
2023/04/05 05:36:13;;;;;;;;;113.00;99.25;;;;;;;;5027863;29;8854;-78
2023/04/05 05:38:47;;;;;;;;;130.67;113.67;;;;;;;;5019173;29;8814;-79
2023/04/05 05:41:20;;;;;;;;;122.50;115.00;;;;;;;;5046277;29;9039;-70
2023/04/05 05:43:52;;;;;;;;;107.50;94.00;;;;;;;;5024118;29;8928;-69
2023/04/05 05:46:23;;;;;;;;;126.00;103.25;;;;;;;;5050129;29;8824;-70
2023/04/05 05:48:54;;;;;;;;;84.75;74.25;;;;;;;;5049885;29;8829;-70
2023/04/05 05:51:43;;;;;;;;;75.40;62.40;;;;;;;;5033600;29;8922;-70
2023/04/05 05:54:15;;;;;;;;;76.20;64.40;;;;;;;;5054947;29;8837;-69
2023/04/05 05:56:45;;;;;;;;;82.40;73.00;;;;;;;;5049882;29;9534;-71
2023/04/05 05:59:16;;;;;;;;;77.50;65.50;;;;;;;;5049757;29;8797;-69
2023/04/05 06:02:06;;;;;;;;;79.40;68.60;;;;;;;;5036884;29;11533;-69
2023/04/05 06:04:37;;;;;;;;;81.80;75.40;;;;;;;;5035067;29;8781;-69
2023/04/05 06:07:08;;;;;;;;;69.00;55.00;;;;;;;;5046641;29;8809;-69
2023/04/05 06:09:39;;;;;;;;;75.75;60.75;;;;;;;;5063104;29;8848;-70
2023/04/05 06:12:10;;;;;;;;;68.00;55.00;;;;;;;;5051634;29;8798;-70
2023/04/05 06:14:40;;;;;;;;;74.20;60.20;;;;;;;;5035505;29;8864;-70
2023/04/05 06:17:11;;;;;;;;;63.00;49.75;;;;;;;;5035879;29;8953;-70
2023/04/05 06:19:42;;;;;;;;;59.00;48.75;;;;;;;;5051672;29;8794;-70
2023/04/05 06:22:32;;;;;;;;;55.80;44.60;;;;;;;;5054070;29;8885;-70
2023/04/05 06:25:03;;;;;;;;;71.00;56.20;;;;;;;;5068260;29;8812;-69
2023/04/05 06:27:34;;;;;;;;;61.80;50.20;;;;;;;;5051162;29;8888;-70
2023/04/05 06:30:05;;;;;;;;;60.40;48.40;;;;;;;;5050060;29;8814;-71
2023/04/05 06:32:36;;;;;;;;;65.00;52.60;;;;;;;;5051100;29;8816;-70
2023/04/05 06:35:07;;;;;;;;;56.50;45.75;;;;;;;;5050889;29;8806;-70
2023/04/05 06:37:57;;;;;;;;;89.00;84.40;;;;;;;;5050746;29;8802;-77
2023/04/05 06:40:30;;;;;;;;;79.80;68.00;;;;;;;;5035793;29;8825;-77
2023/04/05 06:43:03;;;;;;;;;92.80;80.80;;;;;;;;5035485;29;8929;-77
2023/04/05 06:45:37;;;;;;;;;90.40;81.20;;;;;;;;5020896;29;8817;-76
2023/04/05 06:48:09;;;;;;;;;87.40;80.60;;;;;;;;5020467;29;8903;-77
2023/04/05 06:50:42;;;;;;;;;103.25;95.50;;;;;;;;5050870;29;8979;-77
2023/04/05 06:53:32;;;;;;;;;114.25;102.00;;;;;;;;5050767;29;8818;-77
2023/04/05 06:56:05;;;;;;;;;104.75;95.00;;;;;;;;5019683;29;8849;-77
2023/04/05 06:58:38;;;;;;;;;108.50;98.25;;;;;;;;5035567;29;8813;-76
2023/04/05 07:01:10;;;;;;;;;76.80;66.80;;;;;;;;5035310;29;8817;-77
2023/04/05 07:03:42;;;;;;;;;63.60;51.00;;;;;;;;5019997;29;8944;-77
2023/04/05 07:06:14;;;;;;;;;64.40;52.40;;;;;;;;5019665;29;8798;-76
2023/04/05 07:08:47;;;;;;;;;56.20;45.60;;;;;;;;5020264;29;8790;-78
2023/04/05 07:11:20;;;;;;;;;51.00;43.60;;;;;;;;5035302;29;8814;-77
2023/04/05 07:13:52;;;;;;;;;37.00;33.80;;;;;;;;5019658;29;8803;-77
2023/04/05 07:16:25;;;;;;;;;39.00;34.20;;;;;;;;5035406;29;8841;-77
2023/04/05 07:18:58;;;;;;;;;36.40;33.20;;;;;;;;5019963;29;8794;-78
2023/04/05 07:21:30;;;;;;;;;28.40;28.00;;;;;;;;5035224;29;8797;-77
2023/04/05 07:24:03;;;;;;;;;27.80;27.20;;;;;;;;5019451;29;8806;-78
2023/04/05 07:26:36;;;;;;;;;24.00;23.20;;;;;;;;5034884;29;8810;-77
2023/04/05 07:29:09;;;;;;;;;23.00;22.33;;;;;;;;5018968;29;8797;-76
2023/04/05 07:31:41;;;;;;;;;25.60;25.20;;;;;;;;5050308;29;8830;-76
2023/04/05 07:34:14;;;;;;;;;34.80;32.40;;;;;;;;5034827;29;8929;-77
2023/04/05 07:36:46;;;;;;;;;31.40;30.40;;;;;;;;5019348;29;8810;-77
2023/04/05 07:39:20;;;;;;;;;28.00;28.00;;;;;;;;5034937;29;8794;-77
2023/04/05 07:41:52;;;;;;;;;28.60;28.60;;;;;;;;5018676;29;8818;-78
2023/04/05 07:44:24;;;;;;;;;29.80;29.20;;;;;;;;5065142;29;8790;-78
2023/04/05 07:46:56;;;;;;;;;30.40;29.00;;;;;;;;5019253;29;8782;-76
2023/04/05 07:49:29;;;;;;;;;25.60;24.80;;;;;;;;5018835;29;8829;-76
2023/04/05 07:52:01;;;;;;;;;36.80;32.40;;;;;;;;5019249;29;8814;-77
2023/04/05 07:54:34;;;;;;;;;33.40;31.80;;;;;;;;5034128;29;8810;-77
2023/04/05 07:57:06;;;;;;;;;35.20;32.80;;;;;;;;5034209;29;8806;-69
2023/04/05 07:59:37;;;;;;;;;38.20;34.60;;;;;;;;5066247;29;8790;-69
2023/04/05 08:02:07;;;;;;;;;25.40;24.60;;;;;;;;5065173;29;8789;-68
2023/04/05 08:04:38;;;;;;;;;25.33;25.33;;;;;;;;5034262;29;8873;-68
2023/04/05 08:07:09;;;;;;;;;32.50;29.25;;;;;;;;5049154;29;8802;-69
2023/04/05 08:09:43;;;;;;;;;36.80;32.80;;;;;;;;5065992;29;8809;-69
2023/04/05 08:12:13;;;;;;;;;29.25;29.00;;;;;;;;5033986;29;8794;-69
2023/04/05 08:14:45;;;;;;;;;22.00;22.00;;;;;;;;5033219;29;8805;-69
2023/04/05 08:17:34;;;;;;;;;27.25;26.25;;;;;;;;5065883;29;8802;-69
2023/04/05 08:20:06;;;;;;;;;25.75;25.75;;;;;;;;5049186;29;8790;-69
2023/04/05 08:22:36;;;;;;;;;28.00;27.25;;;;;;;;5066007;29;8790;-69
2023/04/05 08:25:08;;;;;;;;;36.75;33.50;;;;;;;;5049119;29;8810;-69
2023/04/05 08:27:57;;;;;;;;;30.25;29.25;;;;;;;;5051319;29;8786;-69
2023/04/05 08:30:28;;;;;;;;;28.00;28.00;;;;;;;;5049012;29;8913;-69
2023/04/05 08:32:58;;;;;;;;;20.00;20.00;;;;;;;;5065576;29;8824;-69
2023/04/05 08:35:30;;;;;;;;;20.75;20.75;;;;;;;;5049162;29;8874;-69
2023/04/05 08:38:19;;;;;;;;;31.50;30.75;;;;;;;;5048899;29;8774;-69
2023/04/05 08:41:20;;;;;;;;;15.25;15.25;;;;;;;;5035383;29;9551;-69
2023/04/05 08:43:55;;;;;;;;;10.50;10.50;;;;;;;;5048158;29;8954;-69
2023/04/05 08:46:26;;;;;;;;;10.50;10.00;;;;;;;;5048413;29;8908;-70
2023/04/05 08:48:57;;;;;;;;;11.67;11.67;;;;;;;;5063612;29;8822;-69
2023/04/05 08:51:28;;;;;;;;;16.25;16.00;;;;;;;;5031891;29;9623;-69
2023/04/05 08:53:59;;;;;;;;;11.00;11.00;;;;;;;;5049023;29;8802;-69
2023/04/05 08:56:53;;;;;;;;;11.00;11.00;;;;;;;;5065158;29;11636;-70
2023/04/05 08:59:24;;;;;;;;;10.00;10.00;;;;;;;;5047447;29;8817;-69
2023/04/05 09:02:16;;;;;;;;;15.25;15.25;;;;;;;;5050951;29;8805;-69
2023/04/05 09:04:47;;;;;;;;;14.00;14.00;;;;;;;;5032948;29;9700;-69
2023/04/05 09:07:37;;;;;;;;;18.25;18.25;;;;;;;;5051163;29;8912;-69
2023/04/05 09:10:08;;;;;;;;;21.75;21.75;;;;;;;;5032943;29;8841;-68
2023/04/05 09:12:40;;;;;;;;;11.67;11.67;;;;;;;;5064422;29;8782;-68
2023/04/05 09:15:13;;;;;;;;;13.00;13.00;;;;;;;;5065122;29;10393;-69
2023/04/05 09:17:44;;;;;;;;;17.75;17.50;;;;;;;;5017306;29;8810;-69
2023/04/05 09:20:15;;;;;;;;;16.25;15.50;;;;;;;;5064622;29;8789;-69
2023/04/05 09:22:46;;;;;;;;;21.00;20.50;;;;;;;;5064604;29;8889;-69
2023/04/05 09:25:34;;;;;;;;;17.00;17.00;;;;;;;;5048229;29;8801;-69
2023/04/05 09:28:39;;;;;;;;;9.00;9.00;;;;;;;;5065023;29;8786;-69
2023/04/05 09:31:28;;;;;;;;;16.75;16.00;;;;;;;;5048063;29;8908;-68
2023/04/05 09:34:03;;;;;;;;;11.25;11.25;;;;;;;;5065224;29;8885;-68
2023/04/05 09:36:34;;;;;;;;;13.75;13.75;;;;;;;;5064917;29;8786;-68
2023/04/05 09:39:06;;;;;;;;;7.75;7.75;;;;;;;;5064327;29;8818;-68
2023/04/05 09:41:38;;;;;;;;;6.00;5.25;;;;;;;;5048096;29;8812;-68
2023/04/05 09:44:09;;;;;;;;;7.00;7.00;;;;;;;;5064302;29;8894;-68
2023/04/05 09:46:40;;;;;;;;;1.00;1.00;;;;;;;;5047240;29;8822;-68
2023/04/05 09:49:13;;;;;;;;;7.75;7.75;;;;;;;;5064622;29;8798;-70
2023/04/05 09:51:45;;;;;;;;;10.50;10.50;;;;;;;;5064679;29;8888;-68
2023/04/05 09:54:17;;;;;;;;;7.00;7.00;;;;;;;;5032851;29;8798;-68
2023/04/05 09:56:56;;;;;;;;;5.50;5.50;;;;;;;;5047996;29;8810;-68
2023/04/05 09:59:27;;;;;;;;;3.50;3.50;;;;;;;;5047813;29;8806;-67
2023/04/05 10:01:58;;;;;;;;;4.50;4.50;;;;;;;;5045544;29;8788;-68
2023/04/05 10:04:48;;;;;;;;;4.00;4.00;;;;;;;;5048112;29;9536;-68
2023/04/05 10:07:19;;;;;;;;;6.00;6.00;;;;;;;;5063990;29;8813;-68
2023/04/05 10:09:50;;;;;;;;;11.67;11.00;;;;;;;;5064137;29;11514;-68
2023/04/05 10:12:25;;;;;;;;;6.50;5.75;;;;;;;;5047828;29;10398;-68
2023/04/05 10:14:56;;;;;;;;;9.50;9.50;;;;;;;;5047427;29;8836;-68
2023/04/05 10:17:29;;;;;;;;;5.75;5.75;;;;;;;;5048417;29;8847;-68
2023/04/05 10:20:20;;;;;;;;;4.75;4.75;;;;;;;;5047856;29;8805;-68
2023/04/05 10:22:51;;;;;;;;;9.25;9.00;;;;;;;;5031654;29;8859;-68
2023/04/05 10:25:25;;;;;;;;;10.00;10.00;;;;;;;;5056064;29;8816;-68
2023/04/05 10:28:04;;;;;;;;;7.25;7.25;;;;;;;;5045284;29;12223;-68
2023/04/05 10:30:57;;;;;;;;;3.25;3.25;;;;;;;;5031295;29;8812;-68
2023/04/05 10:33:27;;;;;;;;;4.00;4.00;;;;;;;;5031727;29;8800;-68
2023/04/05 10:35:58;;;;;;;;;5.00;5.00;;;;;;;;5032044;29;8888;-68
2023/04/05 10:38:32;;;;;;;;;39.25;35.00;;;;;;;;5031982;29;8800;-68
2023/04/05 10:41:08;;;;;;;;;1.75;1.75;;;;;;;;5031682;29;8830;-68
2023/04/05 10:43:40;;;;;;;;;9.50;9.00;;;;;;;;5049946;29;8928;-68
2023/04/05 10:46:17;;;;;;;;;6.00;6.00;;;;;;;;5067135;29;8785;-68
2023/04/05 10:49:24;;;;;;;;;6.75;6.75;;;;;;;;5051538;29;8782;-68
2023/04/05 10:51:54;;;;;;;;;6.00;6.00;;;;;;;;4991655;29;8832;-68
2023/04/05 10:54:25;;;;;;;;;4.00;4.00;;;;;;;;5057325;29;8809;-67
2023/04/05 10:56:56;;;;;;;;;10.33;10.33;;;;;;;;5050818;29;8840;-67
2023/04/05 10:59:28;;;;;;;;;9.75;9.75;;;;;;;;5067323;29;8820;-67
2023/04/05 11:02:18;;;;;;;;;4.25;4.25;;;;;;;;5067638;29;8917;-67
2023/04/05 11:04:55;;;;;;;;;8.00;8.00;;;;;;;;5068471;29;8906;-68
2023/04/05 11:07:41;;;;;;;;;23.75;23.25;;;;;;;;5040603;29;8798;-67
2023/04/05 11:10:17;;;;;;;;;10.00;10.00;;;;;;;;5050211;29;8845;-68
2023/04/05 11:12:48;;;;;;;;;4.50;4.50;;;;;;;;5066580;29;8786;-67
2023/04/05 11:15:37;;;;;;;;;4.25;4.25;;;;;;;;5050331;29;8809;-67
2023/04/05 11:18:21;;;;;;;;;13.00;13.00;;;;;;;;5034033;29;8814;-67
2023/04/05 11:20:55;;;;;;;;;4.75;4.50;;;;;;;;5067016;29;12240;-67
2023/04/05 11:23:26;;;;;;;;;5.25;5.25;;;;;;;;5034715;29;8790;-68
2023/04/05 11:26:04;;;;;;;;;6.33;5.67;;;;;;;;5049835;29;8852;-68
2023/04/05 11:28:56;;;;;;;;;5.75;5.75;;;;;;;;5066614;29;11458;-68
2023/04/05 11:31:27;;;;;;;;;5.50;5.50;;;;;;;;5066875;29;8814;-68
2023/04/05 11:34:11;;;;;;;;;7.00;7.00;;;;;;;;5065959;29;8885;-68
2023/04/05 11:36:44;;;;;;;;;3.25;3.25;;;;;;;;5050419;29;8840;-68
2023/04/05 11:39:21;;;;;;;;;5.50;5.50;;;;;;;;5049442;29;8822;-68
2023/04/05 11:42:11;;;;;;;;;7.50;7.50;;;;;;;;5065634;29;8832;-68
2023/04/05 11:44:46;;;;;;;;;3.75;3.75;;;;;;;;5034837;29;8806;-68
2023/04/05 11:47:20;;;;;;;;;3.25;3.25;;;;;;;;5050196;29;8888;-68
2023/04/05 11:49:51;;;;;;;;;3.00;3.00;;;;;;;;5066913;29;8809;-68
2023/04/05 11:52:22;;;;;;;;;8.25;8.25;;;;;;;;5049778;29;8814;-68
2023/04/05 11:54:52;;;;;;;;;3.33;3.33;;;;;;;;5065932;29;8960;-68
2023/04/05 11:57:23;;;;;;;;;5.33;4.67;;;;;;;;5066569;29;11553;-69
2023/04/05 11:59:55;;;;;;;;;5.00;5.00;;;;;;;;5034372;29;8820;-69
2023/04/05 12:02:26;;;;;;;;;4.00;4.00;;;;;;;;5034632;29;8804;-69
2023/04/05 12:04:57;;;;;;;;;3.50;3.50;;;;;;;;5049170;29;8933;-70
2023/04/05 12:07:31;;;;;;;;;7.67;7.33;;;;;;;;5066251;29;8928;-69
2023/04/05 12:10:02;;;;;;;;;6.00;6.00;;;;;;;;5065901;29;8854;-69
2023/04/05 12:12:37;;;;;;;;;19.75;19.50;;;;;;;;5066323;29;8849;-69
2023/04/05 12:15:09;;;;;;;;;10.00;10.00;;;;;;;;5055796;29;8810;-69
2023/04/05 12:17:40;;;;;;;;;9.25;8.25;;;;;;;;5048891;29;8845;-69
2023/04/05 12:20:15;;;;;;;;;9.33;9.33;;;;;;;;5066160;29;8798;-69
2023/04/05 12:22:47;;;;;;;;;8.50;8.50;;;;;;;;5049674;29;11146;-69
2023/04/05 12:25:18;;;;;;;;;4.25;4.25;;;;;;;;5049206;29;8802;-69
2023/04/05 12:27:49;;;;;;;;;4.00;4.00;;;;;;;;5065999;29;9526;-69
2023/04/05 12:30:21;;;;;;;;;5.33;5.33;;;;;;;;5033635;29;8852;-69
2023/04/05 12:32:53;;;;;;;;;6.50;6.50;;;;;;;;5064375;29;8810;-69
2023/04/05 12:35:31;;;;;;;;;5.00;5.00;;;;;;;;5066256;29;8801;-69
2023/04/05 12:38:04;;;;;;;;;3.25;3.25;;;;;;;;5065197;29;9606;-69
2023/04/05 12:40:36;;;;;;;;;8.00;8.00;;;;;;;;5065511;29;9559;-68
2023/04/05 12:43:07;;;;;;;;;7.25;7.00;;;;;;;;5049308;29;9571;-69
2023/04/05 12:45:41;;;;;;;;;13.25;13.25;;;;;;;;5065927;29;8790;-68
2023/04/05 12:48:30;;;;;;;;;7.75;7.75;;;;;;;;5065992;29;8798;-69
2023/04/05 12:51:03;;;;;;;;;10.00;9.00;;;;;;;;5065458;29;8975;-69
2023/04/05 12:53:43;;;;;;;;;6.00;6.00;;;;;;;;5033162;29;11487;-69
2023/04/05 12:56:17;;;;;;;;;4.50;4.50;;;;;;;;5034937;29;8860;-69
2023/04/05 12:59:06;;;;;;;;;5.50;5.50;;;;;;;;5029533;29;9520;-69
2023/04/05 13:01:37;;;;;;;;;7.25;7.25;;;;;;;;5013834;29;8816;-69
2023/04/05 13:04:08;;;;;;;;;8.25;8.25;;;;;;;;5029857;29;8808;-69
2023/04/05 13:06:57;;;;;;;;;12.00;12.00;;;;;;;;5046132;29;8814;-69
2023/04/05 13:09:46;;;;;;;;;9.00;9.00;;;;;;;;5031533;29;8835;-69
2023/04/05 13:12:17;;;;;;;;;6.33;6.33;;;;;;;;5029312;29;9548;-69
2023/04/05 13:14:48;;;;;;;;;5.67;5.67;;;;;;;;5013769;29;8816;-69
2023/04/05 13:17:19;;;;;;;;;6.67;6.67;;;;;;;;5045619;29;11754;-69
2023/04/05 13:19:49;;;;;;;;;9.67;9.67;;;;;;;;5046056;29;8816;-69
2023/04/05 13:22:20;;;;;;;;;5.67;5.67;;;;;;;;5029200;29;8951;-69
2023/04/05 13:24:52;;;;;;;;;5.00;5.00;;;;;;;;5046177;29;8839;-69
2023/04/05 13:27:23;;;;;;;;;13.75;13.75;;;;;;;;5029411;29;11109;-69
2023/04/05 13:29:54;;;;;;;;;14.33;14.33;;;;;;;;5045735;29;8875;-69
2023/04/05 13:32:25;;;;;;;;;4.33;4.33;;;;;;;;5045569;29;8824;-69
2023/04/05 13:34:55;;;;;;;;;9.00;9.00;;;;;;;;5029106;29;10331;-69
2023/04/05 13:37:26;;;;;;;;;8.67;8.67;;;;;;;;5028269;29;8841;-69
2023/04/05 13:39:57;;;;;;;;;7.00;6.67;;;;;;;;5045246;29;8826;-69
2023/04/05 13:42:28;;;;;;;;;10.33;10.33;;;;;;;;5045590;29;11471;-69
2023/04/05 13:44:59;;;;;;;;;17.75;17.75;;;;;;;;5045797;29;8810;-69
2023/04/05 13:47:30;;;;;;;;;12.67;12.00;;;;;;;;5028602;29;8875;-69
2023/04/05 13:50:01;;;;;;;;;7.00;7.00;;;;;;;;5045158;29;8922;-69
2023/04/05 13:52:33;;;;;;;;;12.25;12.00;;;;;;;;5022829;29;8810;-69
2023/04/05 13:55:05;;;;;;;;;11.25;11.25;;;;;;;;5031669;29;9607;-69
2023/04/05 13:57:35;;;;;;;;;7.00;7.00;;;;;;;;5064882;29;8786;-69
2023/04/05 14:00:08;;;;;;;;;2.50;2.50;;;;;;;;5064946;29;8857;-69
2023/04/05 14:02:57;;;;;;;;;11.75;11.75;;;;;;;;5051194;29;8794;-70
2023/04/05 14:05:46;;;;;;;;;7.00;7.00;;;;;;;;5066935;29;8964;-69
2023/04/05 14:08:17;;;;;;;;;8.00;8.00;;;;;;;;5020565;29;8960;-71
2023/04/05 14:10:48;;;;;;;;;16.33;15.67;;;;;;;;5051425;29;11609;-71
2023/04/05 14:13:19;;;;;;;;;11.25;11.25;;;;;;;;5067525;29;12421;-71
2023/04/05 14:15:51;;;;;;;;;14.00;14.00;;;;;;;;5068204;29;8905;-71
2023/04/05 14:18:22;;;;;;;;;24.40;24.00;;;;;;;;5036052;29;12343;-71
2023/04/05 14:20:55;;;;;;;;;14.00;13.00;;;;;;;;5051542;29;8950;-70
2023/04/05 14:23:28;;;;;;;;;7.75;7.75;;;;;;;;5051946;29;9538;-71
2023/04/05 14:25:59;;;;;;;;;14.00;14.00;;;;;;;;5051701;29;8805;-70
2023/04/05 14:28:30;;;;;;;;;16.25;15.25;;;;;;;;5067700;29;11646;-70
2023/04/05 14:31:01;;;;;;;;;14.00;14.00;;;;;;;;5035882;29;9589;-71
2023/04/05 14:33:32;;;;;;;;;9.33;9.33;;;;;;;;5051287;29;8830;-71
2023/04/05 14:36:21;;;;;;;;;10.25;10.25;;;;;;;;5038508;29;9530;-71
2023/04/05 14:38:52;;;;;;;;;16.00;16.00;;;;;;;;5067847;29;8843;-71
2023/04/05 14:41:23;;;;;;;;;27.75;27.00;;;;;;;;5050844;29;11768;-71
2023/04/05 14:44:19;;;;;;;;;16.00;14.00;;;;;;;;5038417;29;8991;-71
2023/04/05 14:46:50;;;;;;;;;11.00;11.00;;;;;;;;5068138;29;8893;-71
2023/04/05 14:49:21;;;;;;;;;9.75;9.75;;;;;;;;5035142;29;8937;-71
2023/04/05 14:51:52;;;;;;;;;18.67;18.67;;;;;;;;5059998;29;8834;-71
2023/04/05 14:54:23;;;;;;;;;20.33;20.00;;;;;;;;5051192;29;8981;-71
2023/04/05 14:56:54;;;;;;;;;14.67;14.33;;;;;;;;5034309;29;9522;-71
2023/04/05 14:59:43;;;;;;;;;16.00;15.25;;;;;;;;5067646;29;11616;-70
2023/04/05 15:02:14;;;;;;;;;18.00;15.25;;;;;;;;5067057;29;8894;-71
2023/04/05 15:04:45;;;;;;;;;13.00;13.00;;;;;;;;5051290;29;9576;-71
2023/04/05 15:07:16;;;;;;;;;12.67;12.67;;;;;;;;5050853;29;8813;-71
2023/04/05 15:09:47;;;;;;;;;11.67;11.67;;;;;;;;5050377;29;12298;-70
2023/04/05 15:12:18;;;;;;;;;15.25;15.25;;;;;;;;5050415;29;11569;-70
2023/04/05 15:14:49;;;;;;;;;12.75;12.75;;;;;;;;5049920;29;8818;-70
2023/04/05 15:17:20;;;;;;;;;10.75;10.75;;;;;;;;5050634;29;8855;-70
2023/04/05 15:19:51;;;;;;;;;15.00;15.00;;;;;;;;5067137;29;8798;-70
2023/04/05 15:22:22;;;;;;;;;16.00;16.00;;;;;;;;5050114;29;8829;-70
2023/04/05 15:24:54;;;;;;;;;19.67;19.67;;;;;;;;5050572;29;8810;-70